createdAt,value
2023-04-16T00:01:23.751Z,7.43
2023-04-16T00:03:51.719Z,7.85
2023-04-16T00:06:19.447Z,7.10
2023-04-16T00:08:47.074Z,7.85
2023-04-16T00:11:14.355Z,7.45
2023-04-16T00:13:42.020Z,8.15
2023-04-16T00:16:09.356Z,7.75
2023-04-16T00:18:36.930Z,8.00
2023-04-16T00:21:04.332Z,7.00
2023-04-16T00:23:31.968Z,7.25
2023-04-16T00:26:00.166Z,7.15
2023-04-16T00:28:27.962Z,6.57
2023-04-16T00:30:55.822Z,7.05
2023-04-16T00:33:23.487Z,7.20
2023-04-16T00:35:51.584Z,6.90
2023-04-16T00:38:19.479Z,7.22
2023-04-16T00:40:46.778Z,7.15
2023-04-16T00:43:21.471Z,7.47
2023-04-16T00:45:48.820Z,7.55
2023-04-16T00:48:16.690Z,7.95
2023-04-16T00:50:44.065Z,7.80
2023-04-16T00:53:12.063Z,7.45
2023-04-16T00:55:40.696Z,7.25
2023-04-16T00:58:08.764Z,7.80
2023-04-16T01:00:36.291Z,6.85
2023-04-16T01:03:04.215Z,7.15
2023-04-16T01:05:31.720Z,6.95
2023-04-16T01:08:03.261Z,6.72
2023-04-16T01:10:30.862Z,6.68
2023-04-16T01:12:58.468Z,6.50
2023-04-16T01:15:25.794Z,7.10
2023-04-16T01:17:53.398Z,6.95
2023-04-16T01:20:20.735Z,6.60
2023-04-16T01:22:48.550Z,6.97
2023-04-16T01:25:16.347Z,6.72
2023-04-16T01:27:44.042Z,6.72
2023-04-16T01:30:11.550Z,6.68
2023-04-16T01:32:39.310Z,6.47
2023-04-16T01:35:06.739Z,7.05
2023-04-16T01:37:34.416Z,6.30
2023-04-16T01:40:01.794Z,6.78
2023-04-16T01:42:29.403Z,6.55
2023-04-16T01:44:56.792Z,6.38
2023-04-16T01:47:24.430Z,6.70
2023-04-16T01:49:51.936Z,7.43
2023-04-16T01:52:19.572Z,7.05
2023-04-16T01:54:46.908Z,7.30
2023-04-16T01:57:14.525Z,6.95
2023-04-16T01:59:41.806Z,6.80
2023-04-16T02:02:13.166Z,8.02
2023-04-16T02:04:41.569Z,8.20
2023-04-16T02:07:09.884Z,8.10
2023-04-16T02:09:41.056Z,8.02
2023-04-16T02:12:11.290Z,8.07
2023-04-16T02:14:38.694Z,8.57
2023-04-16T02:17:06.308Z,8.00
2023-04-16T02:19:33.571Z,8.43
2023-04-16T02:22:04.339Z,8.82
2023-04-16T02:24:31.651Z,8.52
2023-04-16T02:26:59.221Z,9.38
2023-04-16T02:29:26.510Z,8.35
2023-04-16T02:31:54.299Z,8.05
2023-04-16T02:34:21.647Z,8.25
2023-04-16T02:36:49.193Z,8.30
2023-04-16T02:39:16.689Z,8.77
2023-04-16T02:41:44.246Z,8.40
2023-04-16T02:44:11.507Z,8.60
2023-04-16T02:46:39.387Z,8.13
2023-04-16T02:49:06.656Z,8.18
2023-04-16T02:51:34.263Z,8.57
2023-04-16T02:54:03.002Z,8.15
2023-04-16T02:56:30.878Z,7.95
2023-04-16T02:58:58.160Z,8.35
2023-04-16T03:01:25.905Z,8.77
2023-04-16T03:03:53.280Z,8.95
2023-04-16T03:06:21.122Z,8.63
2023-04-16T03:08:48.399Z,7.68
2023-04-16T03:11:16.165Z,9.23
2023-04-16T03:13:43.478Z,9.02
2023-04-16T03:16:11.623Z,8.32
2023-04-16T03:18:38.939Z,8.45
2023-04-16T03:21:06.806Z,8.02
2023-04-16T03:23:34.186Z,8.75
2023-04-16T03:26:02.013Z,8.75
2023-04-16T03:28:29.315Z,8.43
2023-04-16T03:30:56.912Z,8.90
2023-04-16T03:33:24.328Z,8.65
2023-04-16T03:35:58.358Z,9.23
2023-04-16T03:38:26.610Z,9.25
2023-04-16T03:40:54.271Z,9.85
2023-04-16T03:43:21.621Z,9.48
2023-04-16T03:45:49.225Z,9.35
2023-04-16T03:48:16.785Z,9.75
2023-04-16T03:50:48.108Z,9.18
2023-04-16T03:53:15.770Z,9.75
2023-04-16T03:55:43.543Z,9.82
2023-04-16T03:58:10.842Z,9.60
2023-04-16T04:00:42.396Z,8.95
2023-04-16T04:03:10.304Z,10.57
2023-04-16T04:05:41.753Z,10.02
2023-04-16T04:08:09.407Z,10.57
2023-04-16T04:10:37.250Z,9.88
2023-04-16T04:13:05.469Z,10.50
2023-04-16T04:15:33.103Z,11.05
2023-04-16T04:18:00.607Z,11.30
2023-04-16T04:20:28.455Z,11.68
2023-04-16T04:22:55.717Z,11.05
2023-04-16T04:25:23.400Z,11.50
2023-04-16T04:27:50.827Z,10.82
2023-04-16T04:30:18.797Z,11.02
2023-04-16T04:32:46.141Z,11.75
2023-04-16T04:35:13.761Z,11.50
2023-04-16T04:37:41.174Z,11.20
2023-04-16T04:40:09.094Z,10.82
2023-04-16T04:42:37.394Z,11.23
2023-04-16T04:45:05.748Z,11.55
2023-04-16T04:47:33.008Z,11.13
2023-04-16T04:50:01.059Z,10.50
2023-04-16T04:52:28.373Z,10.85
2023-04-16T04:54:56.343Z,11.82
2023-04-16T04:57:23.664Z,11.50
2023-04-16T04:59:51.258Z,10.82
2023-04-16T05:02:18.655Z,10.13
2023-04-16T05:04:46.349Z,11.52
2023-04-16T05:07:13.707Z,11.30
2023-04-16T05:09:41.402Z,11.38
2023-04-16T05:12:08.715Z,11.68
2023-04-16T05:14:36.403Z,10.90
2023-04-16T05:17:04.048Z,11.23
2023-04-16T05:19:31.797Z,11.02
2023-04-16T05:21:59.057Z,10.88
2023-04-16T05:24:26.630Z,10.75
2023-04-16T05:26:53.900Z,10.93
2023-04-16T05:29:21.976Z,11.02
2023-04-16T05:31:49.316Z,10.98
2023-04-16T05:34:16.933Z,11.07
2023-04-16T05:36:44.247Z,10.20
2023-04-16T05:39:12.141Z,10.43
2023-04-16T05:41:39.613Z,10.20
2023-04-16T05:44:07.203Z,10.27
2023-04-16T05:46:34.727Z,10.70
2023-04-16T05:49:02.420Z,10.55
2023-04-16T05:51:29.790Z,10.65
2023-04-16T05:53:57.318Z,10.18
2023-04-16T05:56:25.446Z,10.13
2023-04-16T05:58:53.027Z,9.90
2023-04-16T06:01:20.323Z,10.30
2023-04-16T06:03:47.977Z,10.77
2023-04-16T06:06:15.407Z,9.80
2023-04-16T06:08:43.275Z,10.18
2023-04-16T06:11:10.732Z,10.43
2023-04-16T06:13:38.558Z,10.43
2023-04-16T06:16:06.170Z,10.07
2023-04-16T06:18:33.847Z,10.48
2023-04-16T06:21:01.381Z,10.55
2023-04-16T06:23:29.079Z,10.77
2023-04-16T06:25:56.605Z,10.10
2023-04-16T06:28:24.219Z,10.63
2023-04-16T06:30:51.512Z,9.30
2023-04-16T06:33:19.159Z,9.05
2023-04-16T06:35:46.454Z,8.60
2023-04-16T06:38:15.136Z,8.88
2023-04-16T06:40:42.570Z,8.90
2023-04-16T06:43:10.209Z,8.20
2023-04-16T06:45:37.580Z,9.27
2023-04-16T06:48:05.768Z,7.78
2023-04-16T06:50:33.170Z,8.40
2023-04-16T06:53:00.835Z,8.02
2023-04-16T06:55:28.100Z,8.05
2023-04-16T06:57:55.791Z,8.43
2023-04-16T07:00:23.122Z,8.75
2023-04-16T07:02:50.894Z,7.63
2023-04-16T07:05:18.508Z,7.60
2023-04-16T07:07:46.048Z,8.40
2023-04-16T07:10:13.411Z,7.57
2023-04-16T07:12:41.188Z,7.97
2023-04-16T07:15:08.718Z,6.85
2023-04-16T07:17:36.538Z,7.53
2023-04-16T07:20:04.074Z,7.90
2023-04-16T07:22:31.860Z,7.25
2023-04-16T07:24:59.152Z,7.20
2023-04-16T07:27:27.125Z,7.35
2023-04-16T07:29:55.397Z,8.20
2023-04-16T07:32:23.294Z,7.13
2023-04-16T07:34:50.970Z,8.32
2023-04-16T07:37:18.620Z,6.47
2023-04-16T07:39:46.108Z,5.00
2023-04-16T07:42:13.790Z,5.47
2023-04-16T07:44:41.124Z,5.80
2023-04-16T07:47:08.925Z,6.10
2023-04-16T07:49:36.194Z,5.40
2023-04-16T07:52:04.038Z,6.57
2023-04-16T07:54:31.446Z,4.75
2023-04-16T07:56:59.092Z,4.97
2023-04-16T07:59:26.685Z,4.40
2023-04-16T08:01:54.755Z,5.22
2023-04-16T08:04:26.430Z,4.88
2023-04-16T08:06:54.701Z,3.72
2023-04-16T08:09:23.684Z,4.03
2023-04-16T08:11:51.491Z,4.35
2023-04-16T08:14:18.850Z,3.72
2023-04-16T08:16:46.484Z,4.70
2023-04-16T08:19:13.930Z,4.82
2023-04-16T08:21:41.704Z,5.40
2023-04-16T08:24:09.086Z,5.10
2023-04-16T08:26:36.753Z,4.25
2023-04-16T08:29:04.074Z,4.00
2023-04-16T08:31:32.011Z,4.53
2023-04-16T08:33:59.622Z,3.53
2023-04-16T08:36:27.697Z,3.45
2023-04-16T08:38:55.208Z,3.78
2023-04-16T08:41:23.097Z,3.70
2023-04-16T08:43:52.331Z,2.95
2023-04-16T08:46:21.899Z,2.85
2023-04-16T08:48:50.580Z,3.33
2023-04-16T08:51:20.100Z,3.20
2023-04-16T08:53:53.361Z,3.47
2023-04-16T08:56:22.224Z,3.63
2023-04-16T08:58:50.843Z,3.72
2023-04-16T09:01:19.632Z,3.25
2023-04-16T09:03:50.588Z,3.63
2023-04-16T09:06:18.485Z,3.55
2023-04-16T09:08:49.199Z,4.88
2023-04-16T09:11:19.947Z,6.85
2023-04-16T09:13:47.907Z,4.10
2023-04-16T09:16:15.837Z,4.07
2023-04-16T09:18:43.308Z,3.50
2023-04-16T09:21:11.304Z,3.58
2023-04-16T09:23:40.046Z,4.28
2023-04-16T09:26:07.684Z,3.72
2023-04-16T09:28:42.136Z,3.83
2023-04-16T09:31:16.843Z,3.55
2023-04-16T09:33:45.030Z,3.15
2023-04-16T09:36:12.608Z,3.17
2023-04-16T09:38:47.422Z,3.35
2023-04-16T09:41:18.314Z,2.47
2023-04-16T09:43:58.686Z,2.38
2023-04-16T09:46:31.041Z,2.78
2023-04-16T09:48:58.836Z,3.13
2023-04-16T09:51:26.555Z,2.50
2023-04-16T09:53:54.878Z,2.38
2023-04-16T09:56:26.278Z,2.50
2023-04-16T09:59:03.018Z,2.17
2023-04-16T10:01:31.560Z,2.40
2023-04-16T10:04:00.519Z,2.78
2023-04-16T10:06:29.905Z,2.80
2023-04-16T10:08:57.385Z,4.00
2023-04-16T10:11:25.842Z,4.10
2023-04-16T10:13:53.170Z,4.85
2023-04-16T10:16:23.185Z,5.45
2023-04-16T10:18:50.628Z,6.20
2023-04-16T10:21:18.345Z,4.43
2023-04-16T10:23:46.423Z,7.93
2023-04-16T10:26:14.106Z,6.25
2023-04-16T10:28:41.439Z,4.25
2023-04-16T10:31:09.790Z,4.40
2023-04-16T10:33:40.085Z,3.53
2023-04-16T10:36:09.632Z,3.08
2023-04-16T10:38:49.770Z,4.00
2023-04-16T10:41:17.469Z,2.92
2023-04-16T10:43:45.633Z,3.70
2023-04-16T10:46:22.926Z,3.72
2023-04-16T10:48:50.996Z,3.45
2023-04-16T10:51:44.810Z,3.40
2023-04-16T10:54:14.490Z,3.75
2023-04-16T10:56:42.117Z,3.35
2023-04-16T10:59:11.224Z,3.80
2023-04-16T11:01:39.369Z,4.13
2023-04-16T11:04:27.109Z,3.95
2023-04-16T11:07:16.743Z,3.78
2023-04-16T11:10:00.354Z,3.72
2023-04-16T11:12:45.107Z,4.00
2023-04-16T11:15:13.447Z,3.80
2023-04-16T11:17:45.288Z,3.75
2023-04-16T11:20:20.040Z,3.35
2023-04-16T11:22:52.282Z,3.55
2023-04-16T11:25:26.789Z,3.78
2023-04-16T11:27:54.682Z,2.85
2023-04-16T11:30:30.171Z,2.95
2023-04-16T11:32:58.189Z,3.30
2023-04-16T11:35:25.757Z,2.88
2023-04-16T11:37:56.816Z,2.63
2023-04-16T11:40:24.558Z,2.95
2023-04-16T11:42:52.135Z,2.80
2023-04-16T11:45:19.518Z,2.75
2023-04-16T11:47:55.448Z,2.72
2023-04-16T11:50:23.743Z,3.35
2023-04-16T11:52:55.309Z,2.90
2023-04-16T11:55:22.860Z,2.25
2023-04-16T11:57:52.658Z,3.40
2023-04-16T12:00:21.633Z,2.88
2023-04-16T12:02:53.432Z,2.78
2023-04-16T12:05:30.518Z,3.15
2023-04-16T12:07:58.783Z,3.20
2023-04-16T12:10:27.048Z,3.13
2023-04-16T12:12:54.812Z,2.55
2023-04-16T12:15:22.112Z,3.17
2023-04-16T12:17:50.562Z,3.33
2023-04-16T12:20:18.025Z,3.10
2023-04-16T12:22:47.061Z,2.50
2023-04-16T12:25:16.453Z,3.55
2023-04-16T12:27:53.477Z,2.22
2023-04-16T12:30:22.856Z,2.80
2023-04-16T12:32:52.518Z,4.15
2023-04-16T12:35:32.859Z,3.47
2023-04-16T12:38:01.442Z,3.35
2023-04-16T12:40:28.850Z,3.50
2023-04-16T12:42:56.561Z,3.25
2023-04-16T12:45:24.231Z,2.97
2023-04-16T12:47:51.906Z,4.10
2023-04-16T12:50:19.228Z,3.17
2023-04-16T12:52:46.866Z,35.97
2023-04-16T12:55:14.279Z,8.18
2023-04-16T12:57:42.636Z,3.20
2023-04-16T13:00:10.708Z,13.18
2023-04-16T13:02:38.731Z,12.95
2023-04-16T13:05:06.399Z,12.00
2023-04-16T13:07:34.088Z,3.83
2023-04-16T13:10:01.656Z,9.10
2023-04-16T13:12:29.407Z,7.63
2023-04-16T13:14:56.719Z,3.85
2023-04-16T13:17:24.304Z,4.55
2023-04-16T13:19:51.672Z,3.28
2023-04-16T13:22:19.484Z,5.82
2023-04-16T13:24:46.854Z,4.20
2023-04-16T13:27:16.035Z,5.75
2023-04-16T13:29:43.530Z,4.68
2023-04-16T13:32:13.647Z,6.97
2023-04-16T13:34:40.974Z,3.92
2023-04-16T13:37:08.594Z,3.58
2023-04-16T13:39:36.086Z,6.15
2023-04-16T13:42:03.689Z,5.72
2023-04-16T13:44:31.126Z,5.97
2023-04-16T13:46:59.636Z,4.07
2023-04-16T13:49:27.144Z,3.85
2023-04-16T13:51:54.808Z,3.15
2023-04-16T13:54:22.143Z,6.03
2023-04-16T13:56:51.124Z,6.88
2023-04-16T13:59:18.841Z,12.02
2023-04-16T14:01:46.434Z,5.65
2023-04-16T14:04:13.794Z,14.57
2023-04-16T14:06:41.464Z,6.47
2023-04-16T14:09:10.748Z,10.32
2023-04-16T14:11:38.640Z,8.88
2023-04-16T14:14:06.012Z,6.15
2023-04-16T14:16:33.833Z,5.38
2023-04-16T14:19:01.161Z,5.50
2023-04-16T14:21:28.851Z,7.90
2023-04-16T14:23:56.156Z,11.90
2023-04-16T14:26:23.762Z,7.10
2023-04-16T14:28:51.492Z,6.32
2023-04-16T14:31:20.051Z,4.45
2023-04-16T14:33:47.440Z,5.35
2023-04-16T14:36:15.678Z,3.97
2023-04-16T14:38:43.310Z,4.32
2023-04-16T14:41:12.431Z,4.07
2023-04-16T14:43:41.343Z,6.20
2023-04-16T14:46:09.147Z,3.95
2023-04-16T14:48:36.681Z,6.75
2023-04-16T14:51:04.290Z,3.67
2023-04-16T14:53:31.867Z,4.72
2023-04-16T14:55:59.494Z,5.38
2023-04-16T14:58:26.889Z,8.98
2023-04-16T15:00:54.625Z,6.13
2023-04-16T15:03:22.146Z,5.68
2023-04-16T15:05:54.466Z,8.45
2023-04-16T15:08:22.274Z,5.65
2023-04-16T15:10:49.918Z,4.65
2023-04-16T15:13:17.403Z,7.07
2023-04-16T15:15:45.347Z,8.43
2023-04-16T15:18:12.706Z,11.07
2023-04-16T15:20:40.334Z,10.38
2023-04-16T15:23:07.726Z,17.40
2023-04-16T15:25:35.408Z,9.27
2023-04-16T15:28:02.753Z,6.32
2023-04-16T15:30:31.149Z,6.18
2023-04-16T15:32:58.573Z,3.90
2023-04-16T15:35:26.224Z,4.82
2023-04-16T15:37:55.209Z,4.45
2023-04-16T15:40:22.852Z,3.40
2023-04-16T15:42:50.192Z,4.25
2023-04-16T15:45:18.026Z,6.10
2023-04-16T15:47:47.947Z,3.72
2023-04-16T15:50:15.887Z,4.75
2023-04-16T15:52:43.222Z,5.65
2023-04-16T15:55:10.943Z,5.90
2023-04-16T15:57:38.373Z,2.60
2023-04-16T16:00:13.468Z,5.28
2023-04-16T16:02:41.891Z,5.38
2023-04-16T16:05:13.598Z,8.98
2023-04-16T16:07:41.407Z,10.73
2023-04-16T16:10:10.036Z,5.03
2023-04-16T16:12:37.837Z,3.88
2023-04-16T16:15:06.502Z,4.57
2023-04-16T16:17:33.858Z,5.28
2023-04-16T16:20:01.539Z,5.60
2023-04-16T16:22:29.848Z,5.40
2023-04-16T16:24:57.679Z,12.00
2023-04-16T16:27:25.085Z,10.00
2023-04-16T16:29:52.977Z,11.55
2023-04-16T16:32:20.378Z,14.57
2023-04-16T16:34:48.653Z,9.60
2023-04-16T16:37:15.995Z,9.68
2023-04-16T16:39:43.646Z,8.77
2023-04-16T16:42:11.264Z,7.65
2023-04-16T16:44:38.925Z,8.95
2023-04-16T16:47:06.437Z,19.33
2023-04-16T16:49:34.149Z,6.53
2023-04-16T16:52:01.777Z,22.67
2023-04-16T16:54:29.386Z,9.75
2023-04-16T16:56:56.849Z,6.50
2023-04-16T16:59:24.418Z,6.90
2023-04-16T17:01:51.867Z,11.18
2023-04-16T17:04:20.531Z,18.23
2023-04-16T17:06:48.052Z,12.55
2023-04-16T17:09:15.680Z,6.45
2023-04-16T17:11:42.992Z,7.60
2023-04-16T17:14:10.671Z,9.25
2023-04-16T17:16:37.966Z,8.27
2023-04-16T17:19:05.609Z,10.05
2023-04-16T17:21:33.825Z,8.23
2023-04-16T17:24:01.705Z,12.00
2023-04-16T17:26:29.181Z,8.07
2023-04-16T17:28:57.916Z,5.70
2023-04-16T17:31:27.558Z,6.60
2023-04-16T17:33:55.362Z,4.65
2023-04-16T17:36:23.229Z,5.78
2023-04-16T17:38:51.005Z,7.53
2023-04-16T17:41:18.516Z,7.25
2023-04-16T17:43:49.560Z,7.13
2023-04-16T17:46:17.077Z,9.10
2023-04-16T17:48:44.709Z,12.63
2023-04-16T17:51:12.711Z,12.48
2023-04-16T17:53:42.555Z,12.70
2023-04-16T17:56:10.078Z,15.65
2023-04-16T17:58:37.950Z,11.75
2023-04-16T18:01:06.067Z,12.18
2023-04-16T18:03:34.135Z,11.40
2023-04-16T18:06:01.711Z,9.93
2023-04-16T18:08:29.546Z,7.35
2023-04-16T18:10:57.162Z,8.38
2023-04-16T18:13:25.172Z,12.98
2023-04-16T18:15:53.002Z,11.10
2023-04-16T18:18:21.333Z,10.90
2023-04-16T18:20:48.710Z,13.23
2023-04-16T18:23:16.324Z,12.77
2023-04-16T18:25:44.717Z,12.77
2023-04-16T18:28:14.095Z,11.80
2023-04-16T18:30:42.578Z,12.57
2023-04-16T18:33:42.745Z,9.15
2023-04-16T18:36:02.280Z,7.07
2023-04-16T18:38:30.577Z,8.73
2023-04-16T18:40:58.464Z,8.45
2023-04-16T18:43:26.257Z,8.65
2023-04-16T18:45:53.584Z,5.32
2023-04-16T18:48:21.262Z,6.40
2023-04-16T18:50:48.582Z,5.05
2023-04-16T18:53:16.241Z,6.50
2023-04-16T18:55:43.710Z,5.93
2023-04-16T18:58:11.590Z,5.60
2023-04-16T19:00:38.895Z,5.93
2023-04-16T19:03:07.478Z,8.88
2023-04-16T19:05:35.084Z,7.07
2023-04-16T19:08:02.767Z,6.30
2023-04-16T19:10:30.301Z,6.47
2023-04-16T19:12:58.084Z,6.13
2023-04-16T19:15:25.444Z,5.43
2023-04-16T19:17:53.061Z,6.78
2023-04-16T19:20:20.398Z,5.80
2023-04-16T19:22:47.951Z,5.47
2023-04-16T19:25:15.304Z,5.03
2023-04-16T19:27:43.167Z,5.75
2023-04-16T19:30:10.687Z,5.65
2023-04-16T19:32:38.413Z,5.75
2023-04-16T19:35:06.223Z,4.72
2023-04-16T19:37:33.808Z,5.90
2023-04-16T19:40:01.991Z,4.85
2023-04-16T19:42:29.768Z,5.00
2023-04-16T19:44:57.559Z,4.40
2023-04-16T19:47:25.692Z,5.05
2023-04-16T19:49:53.087Z,5.57
2023-04-16T19:52:20.722Z,5.72
2023-04-16T19:54:47.990Z,6.25
2023-04-16T19:57:15.554Z,7.85
2023-04-16T19:59:42.991Z,4.35
2023-04-16T20:02:10.893Z,4.15
2023-04-16T20:04:38.425Z,4.28
2023-04-16T20:07:06.319Z,5.15
2023-04-16T20:09:33.671Z,4.93
2023-04-16T20:12:01.982Z,5.10
2023-04-16T20:14:29.258Z,5.18
2023-04-16T20:16:56.892Z,4.15
2023-04-16T20:19:29.885Z,4.38
2023-04-16T20:24:24.532Z,3.53
2023-04-16T20:26:52.282Z,6.40
2023-04-16T20:29:19.613Z,6.88
2023-04-16T20:31:47.186Z,17.85
2023-04-16T20:34:14.509Z,10.55
2023-04-16T20:36:42.109Z,18.70
2023-04-16T20:39:10.870Z,17.60
2023-04-16T20:41:43.637Z,11.70
2023-04-16T20:44:18.136Z,8.32
2023-04-16T20:46:49.487Z,5.15
2023-04-16T20:49:18.389Z,3.55
2023-04-16T20:51:46.140Z,3.67
2023-04-16T20:54:13.391Z,3.55
2023-04-16T20:56:41.568Z,4.50
2023-04-16T20:59:09.159Z,5.82
2023-04-16T21:01:37.039Z,5.85
2023-04-16T21:04:04.615Z,7.57
2023-04-16T21:06:33.993Z,10.82
2023-04-16T21:09:01.279Z,8.80
2023-04-16T21:11:33.169Z,10.65
2023-04-16T21:14:00.597Z,15.32
2023-04-16T21:16:28.324Z,11.23
2023-04-16T21:18:56.100Z,14.18
2023-04-16T21:21:24.014Z,14.55
2023-04-16T21:23:51.400Z,9.48
2023-04-16T21:26:18.936Z,8.13
2023-04-16T21:28:46.231Z,6.18
2023-04-16T21:31:13.846Z,6.60
2023-04-16T21:33:41.184Z,6.68
2023-04-16T21:36:08.864Z,5.78
2023-04-16T21:38:36.260Z,6.18
2023-04-16T21:41:03.805Z,5.97
2023-04-16T21:43:32.141Z,4.90
2023-04-16T21:46:00.491Z,5.03
2023-04-16T21:48:28.507Z,5.50
2023-04-16T21:50:58.021Z,5.20
2023-04-16T21:53:26.912Z,6.10
2023-04-16T21:55:54.927Z,7.10
2023-04-16T21:58:22.172Z,5.80
2023-04-16T22:00:49.896Z,5.88
2023-04-16T22:03:18.631Z,5.30
2023-04-16T22:05:46.577Z,5.95
2023-04-16T22:08:24.124Z,4.95
2023-04-16T22:10:52.643Z,4.55
2023-04-16T22:13:19.964Z,4.15
2023-04-16T22:15:47.531Z,5.35
2023-04-16T22:18:14.866Z,5.68
2023-04-16T22:20:42.430Z,6.25
2023-04-16T22:23:09.748Z,5.30
2023-04-16T22:25:37.305Z,4.88
2023-04-16T22:28:04.692Z,4.78
2023-04-16T22:30:32.343Z,4.25
2023-04-16T22:32:59.769Z,4.97
2023-04-16T22:35:27.344Z,4.30
2023-04-16T22:37:54.683Z,4.85
2023-04-16T22:40:22.275Z,4.88
2023-04-16T22:42:50.271Z,4.18
2023-04-16T22:45:17.912Z,4.53
2023-04-16T22:47:45.269Z,4.05
2023-04-16T22:50:13.079Z,3.42
2023-04-16T22:52:40.338Z,3.28
2023-04-16T22:55:08.289Z,3.45
2023-04-16T22:57:35.713Z,3.25
2023-04-16T23:00:06.389Z,3.53
2023-04-16T23:02:33.788Z,3.25
2023-04-16T23:05:02.071Z,3.60
2023-04-16T23:07:29.404Z,3.97
2023-04-16T23:09:57.045Z,4.25
2023-04-16T23:12:24.321Z,4.38
2023-04-16T23:14:53.125Z,3.75
2023-04-16T23:17:21.115Z,3.90
2023-04-16T23:19:48.636Z,3.42
2023-04-16T23:22:16.041Z,3.70
2023-04-16T23:24:43.608Z,4.22
2023-04-16T23:27:11.512Z,4.43
2023-04-16T23:29:39.169Z,4.03
2023-04-16T23:32:06.525Z,4.18
2023-04-16T23:34:34.094Z,3.92
2023-04-16T23:37:01.471Z,4.38
2023-04-16T23:39:29.141Z,3.60
2023-04-16T23:41:57.553Z,3.40
2023-04-16T23:44:25.464Z,3.60
2023-04-16T23:46:53.209Z,3.40
2023-04-16T23:49:20.796Z,3.53
2023-04-16T23:51:48.093Z,3.78
2023-04-16T23:54:15.898Z,4.03
2023-04-16T23:56:43.360Z,4.07
2023-04-16T23:59:11.155Z,4.53
